Time;durP1;ratioP1;P1;durP2;ratioP2;P2;SDS_P1;SDS_P2;PMS_P1;PMS_P2;Temp;Humidity;BMP_temperature;BMP_pressure;BME280_temperature;BME280_humidity;BME280_pressure;Samples;Min_cycle;Max_cycle;Signal;HPM_P1;HPM_P2
2023/04/18 00:00:58;;;;;;;;;;;9.20;99.90;;;;;;4927271;29;19926;-73
2023/04/18 00:03:23;;;;;;;;;;;9.30;99.90;;;;;;4924515;29;20491;-73
2023/04/18 00:05:49;;;;;;;;;;;9.20;99.90;;;;;;4922971;29;19919;-73
2023/04/18 00:08:15;;;;;;;;;;;9.30;99.90;;;;;;4924455;29;19918;-73
2023/04/18 00:10:40;;;;;;;;;;;9.20;99.90;;;;;;4930049;29;19961;-73
2023/04/18 00:13:06;;;;;;;;;;;9.20;99.90;;;;;;4923473;29;19929;-73
2023/04/18 00:15:34;;;;;;;;;;;9.10;99.90;;;;;;4926591;29;19930;-73
2023/04/18 00:18:02;;;;;;;;;;;9.10;99.90;;;;;;4913002;29;19926;-73
2023/04/18 00:20:28;;;;;;;;;;;9.10;99.90;;;;;;4938625;29;20020;-73
2023/04/18 00:22:53;;;;;;;;;;;9.20;99.90;;;;;;4923519;29;20353;-73
2023/04/18 00:25:19;;;;;;;;;;;9.20;99.90;;;;;;4941387;29;19915;-75
2023/04/18 00:27:45;;;;;;;;;;;9.20;99.90;;;;;;4938026;29;19915;-73
2023/04/18 00:30:11;;;;;;;;;;;9.10;99.90;;;;;;4923399;29;20055;-73
2023/04/18 00:32:36;;;;;;;;;;;9.10;99.90;;;;;;4931735;29;19926;-73
2023/04/18 00:35:03;;;;;;;;;;;9.10;99.90;;;;;;4918321;29;19922;-73
2023/04/18 00:37:29;;;;;;;;;;;9.10;99.90;;;;;;4939639;29;20123;-74
2023/04/18 00:39:55;;;;;;;;;;;9.10;99.90;;;;;;4945297;29;20232;-75
2023/04/18 00:42:20;;;;;;;;;;;9.10;99.90;;;;;;4950865;29;19946;-73
2023/04/18 00:44:46;;;;;;;;;;;9.20;99.90;;;;;;4936727;28;20327;-74
2023/04/18 00:47:19;;;;;;;;;;;9.20;99.90;;;;;;4945395;29;20347;-74
2023/04/18 00:49:44;;;;;;;;;;;9.20;99.90;;;;;;4935614;29;19923;-75
2023/04/18 00:52:13;;;;;;;;;;;9.10;99.90;;;;;;4910055;29;19911;-75
2023/04/18 00:54:39;;;;;;;;;;;9.10;99.90;;;;;;4939156;29;20152;-75
2023/04/18 00:57:04;;;;;;;;;;;9.20;99.90;;;;;;4919936;29;20335;-75
2023/04/18 00:59:32;;;;;;;;;;;9.10;99.90;;;;;;4942708;29;19926;-75
2023/04/18 01:01:57;;;;;;;;;;;9.10;99.90;;;;;;4941670;29;20280;-75
2023/04/18 01:04:23;;;;;;;;;;;9.10;99.90;;;;;;4930103;29;19969;-75
2023/04/18 01:06:48;;;;;;;;;;;9.20;99.90;;;;;;4927897;29;19949;-75
2023/04/18 01:09:14;;;;;;;;;;;9.10;99.90;;;;;;4910071;29;19978;-75
2023/04/18 01:11:40;;;;;;;;;;;9.10;99.90;;;;;;4941857;29;19981;-75
2023/04/18 01:14:06;;;;;;;;;;;9.00;99.90;;;;;;4917568;29;19937;-75
2023/04/18 01:16:32;;;;;;;;;;;9.00;99.90;;;;;;4950300;28;20013;-75
2023/04/18 01:18:58;;;;;;;;;;;9.10;99.90;;;;;;4927075;29;19915;-75
2023/04/18 01:21:23;;;;;;;;;;;9.00;99.90;;;;;;4953449;29;19973;-74
2023/04/18 01:23:49;;;;;;;;;;;9.00;99.90;;;;;;4933600;28;19922;-75
2023/04/18 01:26:15;;;;;;;;;;;8.90;99.90;;;;;;4937323;29;19969;-74
2023/04/18 01:28:41;;;;;;;;;;;9.00;99.90;;;;;;4926448;29;20382;-74
2023/04/18 01:31:06;;;;;;;;;;;9.00;99.90;;;;;;4919291;29;19941;-74
2023/04/18 01:33:32;;;;;;;;;;;8.90;99.90;;;;;;4931367;29;19962;-74
2023/04/18 01:35:57;;;;;;;;;;;8.80;99.90;;;;;;4951532;28;19969;-74
2023/04/18 01:38:23;;;;;;;;;;;8.80;99.90;;;;;;4939237;29;19977;-74
2023/04/18 01:40:49;;;;;;;;;;;8.80;99.90;;;;;;4939873;29;19921;-74
2023/04/18 01:43:15;;;;;;;;;;;8.80;99.90;;;;;;4944295;29;19918;-74
2023/04/18 01:45:40;;;;;;;;;;;8.80;99.90;;;;;;4944278;28;19914;-74
2023/04/18 01:48:06;;;;;;;;;;;8.80;99.90;;;;;;4923746;29;19915;-73
2023/04/18 01:50:32;;;;;;;;;;;8.70;99.90;;;;;;4938440;29;19919;-73
2023/04/18 01:52:57;;;;;;;;;;;8.70;99.90;;;;;;4941934;29;19911;-73
2023/04/18 01:55:23;;;;;;;;;;;8.80;99.90;;;;;;4946112;28;20464;-74
2023/04/18 01:57:49;;;;;;;;;;;8.70;99.90;;;;;;4941064;29;19914;-74
2023/04/18 02:00:15;;;;;;;;;;;8.70;99.90;;;;;;4940052;29;19914;-74
2023/04/18 02:02:41;;;;;;;;;;;8.60;99.90;;;;;;4943132;29;19919;-74
2023/04/18 02:05:07;;;;;;;;;;;8.60;99.90;;;;;;4929267;28;19973;-74
2023/04/18 02:07:33;;;;;;;;;;;8.60;99.90;;;;;;4942547;28;19953;-74
2023/04/18 02:09:58;;;;;;;;;;;8.60;99.90;;;;;;4946852;28;19942;-74
2023/04/18 02:12:24;;;;;;;;;;;8.60;99.90;;;;;;4929399;29;19919;-74
2023/04/18 02:14:50;;;;;;;;;;;8.60;99.90;;;;;;4939484;29;20013;-74
2023/04/18 02:17:16;;;;;;;;;;;8.70;99.90;;;;;;4910231;29;19922;-74
2023/04/18 02:19:41;;;;;;;;;;;8.60;99.90;;;;;;4935816;28;19915;-74
2023/04/18 02:22:07;;;;;;;;;;;8.60;99.90;;;;;;4937473;28;19911;-74
2023/04/18 02:24:33;;;;;;;;;;;8.60;99.90;;;;;;4932487;29;19918;-74
2023/04/18 02:26:58;;;;;;;;;;;8.50;99.90;;;;;;4936944;29;19946;-74
2023/04/18 02:29:24;;;;;;;;;;;8.60;99.90;;;;;;4942893;29;20359;-74
2023/04/18 02:31:49;;;;;;;;;;;8.60;99.90;;;;;;4949981;29;19910;-74
2023/04/18 02:34:15;;;;;;;;;;;8.60;99.90;;;;;;4943201;29;19915;-74
2023/04/18 02:36:41;;;;;;;;;;;8.60;99.90;;;;;;4945485;29;20236;-74
2023/04/18 02:39:07;;;;;;;;;;;8.60;99.90;;;;;;4933970;29;19927;-74
2023/04/18 02:41:36;;;;;;;;;;;8.60;99.90;;;;;;4920599;29;20308;-74
2023/04/18 02:44:02;;;;;;;;;;;8.60;99.90;;;;;;4918840;29;20002;-74
2023/04/18 02:46:27;;;;;;;;;;;8.60;99.90;;;;;;4919396;29;20405;-74
2023/04/18 02:48:53;;;;;;;;;;;8.60;99.90;;;;;;4937802;29;20331;-73
2023/04/18 02:51:18;;;;;;;;;;;8.60;99.90;;;;;;4947168;29;20021;-74
2023/04/18 02:53:44;;;;;;;;;;;8.50;99.90;;;;;;4900260;29;19915;-73
2023/04/18 02:56:10;;;;;;;;;;;8.60;99.90;;;;;;4928766;29;19993;-74
2023/04/18 02:58:36;;;;;;;;;;;8.60;99.90;;;;;;4921928;29;19925;-74
2023/04/18 03:01:02;;;;;;;;;;;8.60;99.90;;;;;;4935149;29;20655;-74
2023/04/18 03:03:27;;;;;;;;;;;8.60;99.90;;;;;;4924008;29;19922;-74
2023/04/18 03:05:53;;;;;;;;;;;8.60;99.90;;;;;;4933960;29;19921;-74
2023/04/18 03:08:18;;;;;;;;;;;8.60;99.90;;;;;;4938914;29;20569;-74
2023/04/18 03:10:44;;;;;;;;;;;8.60;99.90;;;;;;4932382;29;19923;-74
2023/04/18 03:13:10;;;;;;;;;;;8.60;99.90;;;;;;4931788;29;19934;-73
2023/04/18 03:15:36;;;;;;;;;;;8.60;99.90;;;;;;4920890;29;20355;-74
2023/04/18 03:18:03;;;;;;;;;;;8.60;99.90;;;;;;4920201;29;19918;-74
2023/04/18 03:20:28;;;;;;;;;;;8.60;99.90;;;;;;4928241;29;20522;-74
2023/04/18 03:22:54;;;;;;;;;;;8.60;99.90;;;;;;4938160;29;19922;-74
2023/04/18 03:25:20;;;;;;;;;;;8.40;99.90;;;;;;4934100;29;19915;-74
2023/04/18 03:27:45;;;;;;;;;;;8.60;99.90;;;;;;4923109;29;19911;-74
2023/04/18 03:30:12;;;;;;;;;;;8.60;99.90;;;;;;4917839;29;19919;-75
2023/04/18 03:32:37;;;;;;;;;;;8.60;99.90;;;;;;4922330;29;19922;-74
2023/04/18 03:35:03;;;;;;;;;;;8.60;99.90;;;;;;4916600;29;19914;-74
2023/04/18 03:37:29;;;;;;;;;;;8.50;99.90;;;;;;4897732;29;19926;-74
2023/04/18 03:39:56;;;;;;;;;;;8.50;99.90;;;;;;4925272;29;20499;-74
2023/04/18 03:42:22;;;;;;;;;;;8.50;99.90;;;;;;4928364;29;19915;-74
2023/04/18 03:44:47;;;;;;;;;;;8.50;99.90;;;;;;4923578;29;20293;-74
2023/04/18 03:47:15;;;;;;;;;;;8.50;99.90;;;;;;4917679;29;19915;-74
2023/04/18 03:49:41;;;;;;;;;;;8.60;99.90;;;;;;4925396;29;19919;-74
2023/04/18 03:52:06;;;;;;;;;;;8.50;99.90;;;;;;4927255;29;19926;-74
2023/04/18 03:54:32;;;;;;;;;;;8.40;99.90;;;;;;4922755;29;20371;-74
2023/04/18 03:57:01;;;;;;;;;;;8.50;99.90;;;;;;4920269;29;20427;-74
2023/04/18 03:59:27;;;;;;;;;;;8.50;99.90;;;;;;4935117;29;19942;-74
2023/04/18 04:01:53;;;;;;;;;;;8.50;99.90;;;;;;4930239;29;19918;-74
2023/04/18 04:04:19;;;;;;;;;;;8.60;99.90;;;;;;4942301;28;19962;-74
2023/04/18 04:06:45;;;;;;;;;;;8.50;99.90;;;;;;4925270;29;20320;-74
2023/04/18 04:09:10;;;;;;;;;;;8.50;99.90;;;;;;4915834;29;20367;-74
2023/04/18 04:11:36;;;;;;;;;;;8.50;99.90;;;;;;4925091;28;19926;-74
2023/04/18 04:14:02;;;;;;;;;;;8.50;99.90;;;;;;4904196;29;19918;-74
2023/04/18 04:16:27;;;;;;;;;;;8.50;99.90;;;;;;4943486;29;19918;-74
2023/04/18 04:18:53;;;;;;;;;;;8.50;99.90;;;;;;4947184;29;19914;-74
2023/04/18 04:21:18;;;;;;;;;;;8.60;99.90;;;;;;4938808;28;19929;-75
2023/04/18 04:23:45;;;;;;;;;;;8.60;99.90;;;;;;4940003;29;20247;-74
2023/04/18 04:26:10;;;;;;;;;;;8.50;99.90;;;;;;4924266;29;20016;-75
2023/04/18 04:28:37;;;;;;;;;;;8.60;99.90;;;;;;4921167;29;20372;-75
2023/04/18 04:31:07;;;;;;;;;;;8.60;99.90;;;;;;4922620;29;19958;-74
2023/04/18 04:33:34;;;;;;;;;;;8.40;99.90;;;;;;4945819;28;19914;-74
2023/04/18 04:36:00;;;;;;;;;;;8.40;99.90;;;;;;4939116;29;19949;-74
2023/04/18 04:38:29;;;;;;;;;;;8.40;99.90;;;;;;4952844;29;19915;-74
2023/04/18 04:40:56;;;;;;;;;;;8.30;99.90;;;;;;4949561;29;19915;-74
2023/04/18 04:43:21;;;;;;;;;;;8.30;99.90;;;;;;4928267;29;20005;-74
2023/04/18 04:45:48;;;;;;;;;;;8.30;99.90;;;;;;4920082;29;20294;-74
2023/04/18 04:48:14;;;;;;;;;;;8.30;99.90;;;;;;4909991;29;20229;-74
2023/04/18 04:50:40;;;;;;;;;;;8.30;99.90;;;;;;4945672;28;19930;-74
2023/04/18 04:53:06;;;;;;;;;;;8.30;99.90;;;;;;4938859;29;19915;-74
2023/04/18 04:55:32;;;;;;;;;;;8.40;99.90;;;;;;4942942;29;20356;-74
2023/04/18 04:57:57;;;;;;;;;;;8.40;99.90;;;;;;4941612;29;19970;-74
2023/04/18 05:00:23;;;;;;;;;;;8.30;99.90;;;;;;4943939;29;19941;-74
2023/04/18 05:02:52;;;;;;;;;;;8.30;99.90;;;;;;4942557;29;19918;-74
2023/04/18 05:05:17;;;;;;;;;;;8.20;99.90;;;;;;4941715;29;19965;-74
2023/04/18 05:07:43;;;;;;;;;;;8.20;99.90;;;;;;4901052;29;19950;-74
2023/04/18 05:10:09;;;;;;;;;;;8.20;99.90;;;;;;4912553;29;20072;-74
2023/04/18 05:12:35;;;;;;;;;;;8.20;99.90;;;;;;4947132;29;19926;-74
2023/04/18 05:15:00;;;;;;;;;;;8.20;99.90;;;;;;4927886;29;19911;-74
2023/04/18 05:17:26;;;;;;;;;;;8.10;99.90;;;;;;4942946;29;19911;-74
2023/04/18 05:19:52;;;;;;;;;;;8.20;99.90;;;;;;4928597;29;20499;-74
2023/04/18 05:22:17;;;;;;;;;;;8.20;99.90;;;;;;4922854;29;19973;-74
2023/04/18 05:24:43;;;;;;;;;;;8.20;99.90;;;;;;4938975;29;19915;-74
2023/04/18 05:27:08;;;;;;;;;;;8.20;99.90;;;;;;4941629;29;20150;-74
2023/04/18 05:29:34;;;;;;;;;;;8.10;99.90;;;;;;4933228;29;19930;-74
2023/04/18 05:32:00;;;;;;;;;;;8.10;99.90;;;;;;4932422;29;19914;-74
2023/04/18 05:34:25;;;;;;;;;;;8.20;99.90;;;;;;4941767;29;19943;-75
2023/04/18 05:36:52;;;;;;;;;;;8.10;99.90;;;;;;4931714;28;19950;-74
2023/04/18 05:39:18;;;;;;;;;;;8.10;99.90;;;;;;4916333;29;20730;-73
2023/04/18 05:41:44;;;;;;;;;;;8.20;99.90;;;;;;4923004;29;19914;-74
2023/04/18 05:44:10;;;;;;;;;;;8.20;99.90;;;;;;4942824;28;20375;-74
2023/04/18 05:46:36;;;;;;;;;;;8.20;99.90;;;;;;4927493;29;20324;-74
2023/04/18 05:49:02;;;;;;;;;;;8.20;99.90;;;;;;4927382;29;20410;-73
2023/04/18 05:51:28;;;;;;;;;;;8.20;99.90;;;;;;4929846;29;19946;-73
2023/04/18 05:53:54;;;;;;;;;;;8.20;99.90;;;;;;4932719;29;20251;-73
2023/04/18 05:56:21;;;;;;;;;;;8.30;99.90;;;;;;4939234;29;19919;-74
2023/04/18 05:58:47;;;;;;;;;;;8.30;99.90;;;;;;4932998;29;19910;-74
2023/04/18 06:01:13;;;;;;;;;;;8.30;99.90;;;;;;4946980;28;20298;-73
2023/04/18 06:03:40;;;;;;;;;;;8.30;99.90;;;;;;4941273;29;19914;-74
2023/04/18 06:06:06;;;;;;;;;;;8.40;99.90;;;;;;4945658;29;19949;-74
2023/04/18 06:08:33;;;;;;;;;;;8.30;99.90;;;;;;4942993;29;20379;-74
2023/04/18 06:10:58;;;;;;;;;;;8.30;99.90;;;;;;4940123;29;20597;-73
2023/04/18 06:13:24;;;;;;;;;;;8.30;99.90;;;;;;4935740;29;19929;-73
2023/04/18 06:15:50;;;;;;;;;;;8.40;99.90;;;;;;4926952;29;19915;-74
2023/04/18 06:18:15;;;;;;;;;;;8.30;99.90;;;;;;4947825;29;19914;-74
2023/04/18 06:20:42;;;;;;;;;;;8.40;99.90;;;;;;4946758;29;19929;-74
2023/04/18 06:23:08;;;;;;;;;;;8.30;99.90;;;;;;4916938;29;19914;-73
2023/04/18 06:25:34;;;;;;;;;;;8.30;99.90;;;;;;4935918;29;19915;-73
2023/04/18 06:28:00;;;;;;;;;;;8.40;99.90;;;;;;4942149;29;20352;-73
2023/04/18 06:30:25;;;;;;;;;;;8.30;99.90;;;;;;4931634;29;19969;-73
2023/04/18 06:32:51;;;;;;;;;;;8.50;99.90;;;;;;4920741;29;20000;-74
2023/04/18 06:35:16;;;;;;;;;;;8.50;99.90;;;;;;4932178;29;19924;-74
2023/04/18 06:37:43;;;;;;;;;;;8.60;99.90;;;;;;4938592;29;19922;-74
2023/04/18 06:40:10;;;;;;;;;;;8.60;99.90;;;;;;4932012;29;19914;-74
2023/04/18 06:42:36;;;;;;;;;;;8.60;99.90;;;;;;4941650;29;19915;-73
2023/04/18 06:45:02;;;;;;;;;;;8.60;99.90;;;;;;4906875;29;19915;-73
2023/04/18 06:47:28;;;;;;;;;;;8.60;99.90;;;;;;4941237;29;19972;-73
2023/04/18 06:49:54;;;;;;;;;;;8.70;99.90;;;;;;4942149;28;19919;-73
2023/04/18 06:52:19;;;;;;;;;;;8.60;99.90;;;;;;4926019;29;19919;-73
2023/04/18 06:54:46;;;;;;;;;;;8.60;99.90;;;;;;4937632;29;20469;-73
2023/04/18 06:57:12;;;;;;;;;;;8.60;99.90;;;;;;4927778;29;19961;-73
2023/04/18 06:59:40;;;;;;;;;;;8.70;99.90;;;;;;4947092;29;19942;-73
2023/04/18 07:02:06;;;;;;;;;;;8.80;99.90;;;;;;4941116;29;19918;-73
2023/04/18 07:04:31;;;;;;;;;;;8.70;99.90;;;;;;4928911;29;19910;-73
2023/04/18 07:06:57;;;;;;;;;;;8.70;99.90;;;;;;4931754;29;19918;-73
2023/04/18 07:09:23;;;;;;;;;;;8.80;99.90;;;;;;4935671;29;20275;-73
2023/04/18 07:11:49;;;;;;;;;;;8.70;99.90;;;;;;4934039;29;19953;-74
2023/04/18 07:14:15;;;;;;;;;;;8.80;99.90;;;;;;4941033;29;19969;-74
2023/04/18 07:16:41;;;;;;;;;;;8.80;99.90;;;;;;4928948;29;19974;-74
2023/04/18 07:19:07;;;;;;;;;;;8.70;99.90;;;;;;4919049;29;20017;-74
2023/04/18 07:21:33;;;;;;;;;;;8.80;99.90;;;;;;4940636;29;19910;-74
2023/04/18 07:23:59;;;;;;;;;;;9.00;99.90;;;;;;4931828;29;19920;-73
2023/04/18 07:26:26;;;;;;;;;;;9.00;99.90;;;;;;4918263;29;19922;-73
2023/04/18 07:28:52;;;;;;;;;;;9.00;99.90;;;;;;4928917;29;20318;-74
2023/04/18 07:31:18;;;;;;;;;;;9.10;99.90;;;;;;4914841;29;19914;-73
2023/04/18 07:33:43;;;;;;;;;;;9.10;99.90;;;;;;4909650;29;19922;-74
2023/04/18 07:36:09;;;;;;;;;;;9.20;99.90;;;;;;4938266;29;19929;-73
2023/04/18 07:38:35;;;;;;;;;;;9.20;99.90;;;;;;4953244;28;19910;-73
2023/04/18 07:41:01;;;;;;;;;;;9.20;99.90;;;;;;4933317;29;19911;-73
2023/04/18 07:43:27;;;;;;;;;;;9.30;99.90;;;;;;4919139;29;19949;-73
2023/04/18 07:45:52;;;;;;;;;;;9.30;99.90;;;;;;4915328;29;19925;-73
2023/04/18 07:48:20;;;;;;;;;;;9.30;99.90;;;;;;4934736;29;20580;-73
2023/04/18 07:50:47;;;;;;;;;;;9.40;99.90;;;;;;4909686;29;20304;-73
2023/04/18 07:53:13;;;;;;;;;;;9.40;99.90;;;;;;4935949;29;19914;-74
2023/04/18 07:55:38;;;;;;;;;;;9.40;99.90;;;;;;4923504;29;19918;-73
2023/04/18 07:58:04;;;;;;;;;;;9.50;99.90;;;;;;4939235;29;19921;-73
2023/04/18 08:00:31;;;;;;;;;;;9.50;99.90;;;;;;4920185;29;19926;-73
2023/04/18 08:02:57;;;;;;;;;;;9.50;99.90;;;;;;4920370;29;19911;-73
2023/04/18 08:05:23;;;;;;;;;;;9.50;99.90;;;;;;4920083;29;19926;-74
2023/04/18 08:07:48;;;;;;;;;;;9.60;99.90;;;;;;4937901;29;19919;-73
2023/04/18 08:10:14;;;;;;;;;;;9.70;99.90;;;;;;4929561;29;19925;-74
2023/04/18 08:12:40;;;;;;;;;;;9.80;99.90;;;;;;4924716;29;19922;-73
2023/04/18 08:15:06;;;;;;;;;;;9.80;99.90;;;;;;4940755;29;19933;-74
2023/04/18 08:17:32;;;;;;;;;;;9.90;99.90;;;;;;4927815;29;19918;-74
2023/04/18 08:19:58;;;;;;;;;;;9.90;99.90;;;;;;4927430;29;20277;-73
2023/04/18 08:22:24;;;;;;;;;;;9.90;99.90;;;;;;4930077;29;19915;-73
2023/04/18 08:24:50;;;;;;;;;;;10.00;99.90;;;;;;4925713;29;19934;-73
2023/04/18 08:27:15;;;;;;;;;;;10.00;99.90;;;;;;4946588;29;20427;-73
2023/04/18 08:29:41;;;;;;;;;;;10.10;99.90;;;;;;4906729;29;19937;-73
2023/04/18 08:32:07;;;;;;;;;;;10.30;99.90;;;;;;4926101;29;19918;-74
2023/04/18 08:34:35;;;;;;;;;;;10.30;99.90;;;;;;4923867;29;19950;-73
2023/04/18 08:37:01;;;;;;;;;;;10.40;99.90;;;;;;4934817;29;19922;-73
2023/04/18 08:39:26;;;;;;;;;;;10.40;99.90;;;;;;4908229;29;19948;-73
2023/04/18 08:41:53;;;;;;;;;;;10.50;99.90;;;;;;4933704;29;19926;-74
2023/04/18 08:44:18;;;;;;;;;;;10.50;99.90;;;;;;4922183;29;20014;-73
2023/04/18 08:46:45;;;;;;;;;;;10.50;99.90;;;;;;4930431;29;20435;-73
2023/04/18 08:49:11;;;;;;;;;;;10.40;99.90;;;;;;4933956;29;19965;-73
2023/04/18 08:51:37;;;;;;;;;;;10.50;99.90;;;;;;4940570;29;19915;-73
2023/04/18 08:54:05;;;;;;;;;;;10.50;99.90;;;;;;4911963;29;19925;-73
2023/04/18 08:56:30;;;;;;;;;;;10.70;99.90;;;;;;4926923;29;19987;-73
2023/04/18 08:58:59;;;;;;;;;;;10.70;99.90;;;;;;4920090;29;19914;-73
2023/04/18 09:01:43;;;;;;;;;;;10.60;99.90;;;;;;4923010;29;20323;-73
2023/04/18 09:04:09;;;;;;;;;;;10.60;99.90;;;;;;4945186;29;20251;-73
2023/04/18 09:06:35;;;;;;;;;;;10.80;99.90;;;;;;4936495;29;19911;-73
2023/04/18 09:09:03;;;;;;;;;;;10.90;99.90;;;;;;4940455;29;20336;-73
2023/04/18 09:11:28;;;;;;;;;;;11.00;99.90;;;;;;4919033;29;20289;-74
2023/04/18 09:14:01;;;;;;;;;;;11.10;99.90;;;;;;4932150;29;20005;-73
2023/04/18 09:16:28;;;;;;;;;;;11.10;99.90;;;;;;4930783;29;19915;-73
2023/04/18 09:19:10;;;;;;;;;;;11.20;99.90;;;;;;4929603;29;19923;-73
2023/04/18 09:21:40;;;;;;;;;;;11.20;99.90;;;;;;4924790;29;19915;-73
2023/04/18 09:24:16;;;;;;;;;;;11.30;99.90;;;;;;4945530;29;19915;-74
2023/04/18 09:26:42;;;;;;;;;;;11.20;99.90;;;;;;4929394;29;19925;-73
2023/04/18 09:29:07;;;;;;;;;;;11.00;99.90;;;;;;4932360;29;19914;-76
2023/04/18 09:31:34;;;;;;;;;;;11.00;99.90;;;;;;4942729;29;19914;-75
2023/04/18 09:34:01;;;;;;;;;;;11.10;99.90;;;;;;4947324;29;19926;-73
2023/04/18 09:36:27;;;;;;;;;;;11.00;99.90;;;;;;4947241;28;19910;-73
2023/04/18 09:38:53;;;;;;;;;;;11.00;99.90;;;;;;4933108;29;19915;-73
2023/04/18 09:41:19;;;;;;;;;;;11.10;99.90;;;;;;4930692;29;20012;-74
2023/04/18 09:43:45;;;;;;;;;;;11.10;99.90;;;;;;4929780;29;19925;-75
2023/04/18 09:46:11;;;;;;;;;;;11.00;99.90;;;;;;4928991;29;21006;-73
2023/04/18 09:48:37;;;;;;;;;;;11.10;99.90;;;;;;4945508;29;19923;-73
2023/04/18 09:51:09;;;;;;;;;;;11.10;99.90;;;;;;4910230;29;19921;-73
2023/04/18 09:53:38;;;;;;;;;;;11.00;99.90;;;;;;4930079;29;19914;-73
2023/04/18 09:56:05;;;;;;;;;;;10.90;99.90;;;;;;4945185;28;19977;-73
2023/04/18 09:58:31;;;;;;;;;;;10.90;99.90;;;;;;4944728;29;19946;-73
2023/04/18 10:00:57;;;;;;;;;;;11.00;99.90;;;;;;4946731;28;19918;-73
2023/04/18 10:03:24;;;;;;;;;;;10.90;99.90;;;;;;4930115;29;19922;-73
2023/04/18 10:05:50;;;;;;;;;;;10.80;99.90;;;;;;4941168;29;19922;-73
2023/04/18 10:08:16;;;;;;;;;;;10.70;99.90;;;;;;4948213;29;20308;-73
2023/04/18 10:10:43;;;;;;;;;;;10.70;99.90;;;;;;4927158;29;19918;-73
2023/04/18 10:13:10;;;;;;;;;;;10.90;99.90;;;;;;4943954;29;19923;-73
2023/04/18 10:15:37;;;;;;;;;;;10.80;99.90;;;;;;4944463;29;19915;-73
2023/04/18 10:18:08;;;;;;;;;;;10.80;99.90;;;;;;4925408;29;19922;-73
2023/04/18 10:20:33;;;;;;;;;;;10.70;99.90;;;;;;4904097;29;20316;-73
2023/04/18 10:22:59;;;;;;;;;;;10.70;99.90;;;;;;4922977;29;19929;-73
2023/04/18 10:25:37;;;;;;;;;;;10.70;99.90;;;;;;4909519;29;19915;-73
2023/04/18 10:28:12;;;;;;;;;;;10.60;99.90;;;;;;4938126;29;19915;-73
2023/04/18 10:30:40;;;;;;;;;;;10.50;99.90;;;;;;4922942;29;19918;-73
2023/04/18 10:33:19;;;;;;;;;;;10.70;99.90;;;;;;4926026;29;20228;-73
2023/04/18 10:35:57;;;;;;;;;;;10.80;99.90;;;;;;4940854;29;19910;-73
2023/04/18 10:38:23;;;;;;;;;;;10.60;99.90;;;;;;4947773;29;19917;-73
2023/04/18 10:40:48;;;;;;;;;;;10.50;99.90;;;;;;4904317;29;19915;-73
2023/04/18 10:43:14;;;;;;;;;;;10.60;99.90;;;;;;4921846;29;19915;-73
2023/04/18 10:45:40;;;;;;;;;;;10.50;99.90;;;;;;4934688;29;19925;-73
2023/04/18 10:48:28;;;;;;;;;;;10.70;99.90;;;;;;4948090;29;20204;-73
2023/04/18 10:51:16;;;;;;;;;;;10.70;99.90;;;;;;4937144;29;19918;-73
2023/04/18 10:53:45;;;;;;;;;;;10.80;99.90;;;;;;4926000;29;19914;-73
2023/04/18 10:56:11;;;;;;;;;;;10.80;99.90;;;;;;4946177;29;19918;-73
2023/04/18 10:58:36;;;;;;;;;;;10.70;99.90;;;;;;4909458;29;19915;-73
2023/04/18 11:01:02;;;;;;;;;;;10.80;99.90;;;;;;4922057;29;19914;-73
2023/04/18 11:03:37;;;;;;;;;;;10.80;99.90;;;;;;4931623;29;20628;-73
2023/04/18 11:06:02;;;;;;;;;;;10.80;99.90;;;;;;4941658;29;20676;-73
2023/04/18 11:08:28;;;;;;;;;;;10.80;99.90;;;;;;4933372;29;19922;-74
2023/04/18 11:11:02;;;;;;;;;;;10.80;99.90;;;;;;4937392;29;19910;-73
2023/04/18 11:13:27;;;;;;;;;;;11.00;99.90;;;;;;4927570;29;19929;-73
2023/04/18 11:15:53;;;;;;;;;;;11.00;99.90;;;;;;4942163;29;19911;-73
2023/04/18 11:18:19;;;;;;;;;;;11.00;99.90;;;;;;4909532;29;19969;-73
2023/04/18 11:20:45;;;;;;;;;;;11.10;99.90;;;;;;4950741;29;19925;-72
2023/04/18 11:23:19;;;;;;;;;;;11.10;99.90;;;;;;4944941;29;20001;-73
2023/04/18 11:25:45;;;;;;;;;;;11.10;99.90;;;;;;4945105;29;19918;-73
2023/04/18 11:28:15;;;;;;;;;;;11.10;99.90;;;;;;4934204;29;19910;-73
2023/04/18 11:30:42;;;;;;;;;;;11.00;99.90;;;;;;4951736;29;19985;-73
2023/04/18 11:33:11;;;;;;;;;;;11.00;99.90;;;;;;4947226;29;19915;-73
2023/04/18 11:35:37;;;;;;;;;;;11.10;99.90;;;;;;4932724;29;19915;-73
2023/04/18 11:38:02;;;;;;;;;;;11.10;99.90;;;;;;4924707;29;19914;-73
2023/04/18 11:40:28;;;;;;;;;;;11.20;99.90;;;;;;4927312;29;19914;-73
2023/04/18 11:42:54;;;;;;;;;;;11.20;99.90;;;;;;4940432;29;20366;-73
2023/04/18 11:45:20;;;;;;;;;;;11.20;99.90;;;;;;4923639;29;19944;-73
2023/04/18 11:47:46;;;;;;;;;;;11.30;99.90;;;;;;4925264;29;20355;-74
2023/04/18 11:50:12;;;;;;;;;;;11.30;99.90;;;;;;4928083;29;19919;-73
2023/04/18 11:52:38;;;;;;;;;;;11.40;99.90;;;;;;4918099;29;20009;-73
2023/04/18 11:55:16;;;;;;;;;;;11.30;99.90;;;;;;4936533;29;20391;-73
2023/04/18 11:57:42;;;;;;;;;;;11.40;99.90;;;;;;4953824;29;20625;-73
2023/04/18 12:00:08;;;;;;;;;;;11.40;99.90;;;;;;4918445;29;19922;-73
2023/04/18 12:02:39;;;;;;;;;;;11.50;99.90;;;;;;4927087;29;19926;-73
2023/04/18 12:05:05;;;;;;;;;;;11.50;99.90;;;;;;4945266;28;20198;-74
2023/04/18 12:07:31;;;;;;;;;;;11.70;99.90;;;;;;4923151;29;19974;-73
2023/04/18 12:09:57;;;;;;;;;;;12.30;99.90;;;;;;4951477;29;19922;-74
2023/04/18 12:12:22;;;;;;;;;;;12.70;99.90;;;;;;4939443;28;19926;-74
2023/04/18 12:14:52;;;;;;;;;;;13.00;99.90;;;;;;4948362;28;20228;-73
2023/04/18 12:17:18;;;;;;;;;;;13.20;99.90;;;;;;4927476;29;20013;-75
2023/04/18 12:19:44;;;;;;;;;;;13.40;99.90;;;;;;4951393;29;20014;-75
2023/04/18 12:22:09;;;;;;;;;;;13.60;99.90;;;;;;4945781;29;19950;-75
2023/04/18 12:24:36;;;;;;;;;;;13.90;99.90;;;;;;4941223;28;19914;-74
2023/04/18 12:27:02;;;;;;;;;;;14.20;99.90;;;;;;4944391;29;19917;-75
2023/04/18 12:29:29;;;;;;;;;;;14.60;99.90;;;;;;4942081;29;19919;-75
2023/04/18 12:31:55;;;;;;;;;;;15.00;99.90;;;;;;4943027;29;19918;-75
2023/04/18 12:34:21;;;;;;;;;;;15.50;99.90;;;;;;4922190;29;19914;-75
2023/04/18 12:36:46;;;;;;;;;;;15.70;99.90;;;;;;4937502;29;19921;-73
2023/04/18 12:39:12;;;;;;;;;;;15.70;98.60;;;;;;4939857;29;19915;-75
2023/04/18 12:41:38;;;;;;;;;;;15.30;96.20;;;;;;4923639;29;19915;-73
2023/04/18 12:44:04;;;;;;;;;;;14.80;94.70;;;;;;4929947;29;19915;-72
2023/04/18 12:46:30;;;;;;;;;;;14.50;95.30;;;;;;4927416;29;19970;-70
2023/04/18 12:48:56;;;;;;;;;;;14.70;96.50;;;;;;4933821;29;19919;-70
2023/04/18 12:51:22;;;;;;;;;;;14.80;96.50;;;;;;4948762;28;19921;-70
2023/04/18 12:53:48;;;;;;;;;;;14.80;96.60;;;;;;4943435;28;20533;-70
2023/04/18 12:56:14;;;;;;;;;;;14.50;95.50;;;;;;4926802;29;20009;-70
2023/04/18 12:58:39;;;;;;;;;;;14.40;96.40;;;;;;4946496;29;19914;-70
2023/04/18 13:01:05;;;;;;;;;;;14.40;95.80;;;;;;4945499;29;19925;-70
2023/04/18 13:03:32;;;;;;;;;;;14.50;95.90;;;;;;4927707;29;19921;-70
2023/04/18 13:05:58;;;;;;;;;;;14.30;95.80;;;;;;4939863;29;19914;-71
2023/04/18 13:08:23;;;;;;;;;;;14.30;97.10;;;;;;4946350;29;20484;-71
2023/04/18 13:10:49;;;;;;;;;;;14.60;97.20;;;;;;4938226;29;19957;-71
2023/04/18 13:13:15;;;;;;;;;;;14.80;97.40;;;;;;4938764;29;20005;-71
2023/04/18 13:15:40;;;;;;;;;;;14.60;95.50;;;;;;4949337;28;19922;-71
2023/04/18 13:18:07;;;;;;;;;;;14.50;96.10;;;;;;4925837;29;19937;-71
2023/04/18 13:20:32;;;;;;;;;;;14.60;96.10;;;;;;4918926;29;20300;-72
2023/04/18 13:22:58;;;;;;;;;;;14.70;96.40;;;;;;4934044;29;19922;-71
2023/04/18 13:25:25;;;;;;;;;;;14.90;96.10;;;;;;4903209;29;19914;-72
2023/04/18 13:27:51;;;;;;;;;;;14.90;95.90;;;;;;4933404;29;19915;-71
2023/04/18 13:30:16;;;;;;;;;;;14.70;96.40;;;;;;4917883;29;19982;-71
2023/04/18 13:32:42;;;;;;;;;;;14.80;96.50;;;;;;4901688;29;20005;-71
2023/04/18 13:35:08;;;;;;;;;;;14.80;96.30;;;;;;4918891;29;19915;-71
2023/04/18 13:37:34;;;;;;;;;;;14.80;96.20;;;;;;4918089;29;20508;-71
2023/04/18 13:40:00;;;;;;;;;;;15.10;96.00;;;;;;4934351;29;19948;-72
2023/04/18 13:42:25;;;;;;;;;;;15.30;96.40;;;;;;4921739;29;19961;-71
2023/04/18 13:44:52;;;;;;;;;;;15.00;95.40;;;;;;4925124;29;19942;-71
2023/04/18 13:47:18;;;;;;;;;;;15.20;96.10;;;;;;4934400;29;19922;-71
2023/04/18 13:49:44;;;;;;;;;;;15.40;95.10;;;;;;4934760;29;19919;-71
2023/04/18 13:52:10;;;;;;;;;;;15.50;95.60;;;;;;4918627;29;20368;-71
2023/04/18 13:54:36;;;;;;;;;;;15.70;94.90;;;;;;4921285;29;19922;-71
2023/04/18 13:57:02;;;;;;;;;;;15.60;95.00;;;;;;4938862;29;20332;-71
2023/04/18 13:59:29;;;;;;;;;;;15.40;95.10;;;;;;4924710;29;19921;-71
2023/04/18 14:01:54;;;;;;;;;;;15.10;95.70;;;;;;4941000;29;19914;-71
2023/04/18 14:04:21;;;;;;;;;;;14.80;96.20;;;;;;4934700;29;20370;-72
2023/04/18 14:06:46;;;;;;;;;;;14.80;96.80;;;;;;4900632;29;19914;-72
2023/04/18 14:09:12;;;;;;;;;;;14.70;96.80;;;;;;4917476;29;20008;-71
2023/04/18 14:11:38;;;;;;;;;;;14.70;97.30;;;;;;4930067;29;19914;-72
2023/04/18 14:14:03;;;;;;;;;;;14.50;97.80;;;;;;4917941;29;20125;-72
2023/04/18 14:16:32;;;;;;;;;;;14.50;98.30;;;;;;4917436;29;19915;-72
2023/04/18 14:18:58;;;;;;;;;;;14.50;98.30;;;;;;4913883;29;19941;-72